createdAt,value
2017-06-01T00:00:38.076Z,7.30
2017-06-01T00:03:07.194Z,7.68
2017-06-01T00:05:36.263Z,8.98
2017-06-01T00:08:05.411Z,11.56
2017-06-01T00:10:34.476Z,8.22
2017-06-01T00:13:03.565Z,5.52
2017-06-01T00:15:32.864Z,6.46
2017-06-01T00:18:01.936Z,7.90
2017-06-01T00:20:30.996Z,5.14
2017-06-01T00:23:00.041Z,6.06
2017-06-01T00:25:29.123Z,7.68
2017-06-01T00:27:58.255Z,5.36
2017-06-01T00:30:27.267Z,5.84
2017-06-01T00:32:56.340Z,7.58
2017-06-01T00:35:25.415Z,6.70
2017-06-01T00:37:54.586Z,5.42
2017-06-01T00:40:23.660Z,7.86
2017-06-01T00:42:52.709Z,4.10
2017-06-01T00:45:21.777Z,7.70
2017-06-01T00:47:51.596Z,4.50
2017-06-01T00:50:20.671Z,4.46
2017-06-01T00:52:49.777Z,4.38
2017-06-01T00:55:19.149Z,5.16
2017-06-01T00:57:48.217Z,4.58
2017-06-01T01:00:17.405Z,7.14
2017-06-01T01:02:46.458Z,6.02
2017-06-01T01:05:15.672Z,6.40
2017-06-01T01:07:44.727Z,5.70
2017-06-01T01:10:13.785Z,4.98
2017-06-01T01:12:42.853Z,3.48
2017-06-01T01:15:11.896Z,5.36
2017-06-01T01:17:40.941Z,4.94
2017-06-01T01:20:10.134Z,3.60
2017-06-01T01:22:39.232Z,6.02
2017-06-01T01:25:08.300Z,9.14
2017-06-01T01:27:37.382Z,3.78
2017-06-01T01:30:06.444Z,9.12
2017-06-01T01:32:35.497Z,4.92
2017-06-01T01:35:04.706Z,4.34
2017-06-01T01:37:33.752Z,9.12
2017-06-01T01:40:02.820Z,8.86
2017-06-01T01:42:31.896Z,9.82
2017-06-01T01:45:00.947Z,5.90
2017-06-01T01:47:30.016Z,4.36
2017-06-01T01:49:59.102Z,7.28
2017-06-01T01:52:28.237Z,4.50
2017-06-01T01:54:57.416Z,5.72
2017-06-01T01:57:26.501Z,7.28
2017-06-01T01:59:55.577Z,10.20
2017-06-01T02:02:24.736Z,9.68
2017-06-01T02:04:53.931Z,7.06
2017-06-01T02:07:23.075Z,3.88
2017-06-01T02:09:52.336Z,5.40
2017-06-01T02:12:21.388Z,5.42
2017-06-01T02:14:50.733Z,7.98
2017-06-01T02:17:19.804Z,5.34
2017-06-01T02:19:49.205Z,7.84
2017-06-01T02:22:18.296Z,5.12
2017-06-01T02:24:47.366Z,5.58
2017-06-01T02:27:16.508Z,6.40
2017-06-01T02:29:45.594Z,8.06
2017-06-01T02:32:14.660Z,3.60
2017-06-01T02:34:43.730Z,8.30
2017-06-01T02:37:12.794Z,3.80
2017-06-01T02:39:41.856Z,8.26
2017-06-01T02:42:10.932Z,7.32
2017-06-01T02:44:40.061Z,6.12
2017-06-01T02:47:09.179Z,4.28
2017-06-01T02:49:38.236Z,5.28
2017-06-01T02:52:07.361Z,7.36
2017-06-01T02:54:36.441Z,9.12
2017-06-01T02:57:05.545Z,5.46
2017-06-01T02:59:34.615Z,6.82
2017-06-01T03:02:03.695Z,6.72
2017-06-01T03:04:32.765Z,7.30
2017-06-01T03:07:01.834Z,6.22
2017-06-01T03:09:30.903Z,5.92
2017-06-01T03:11:59.941Z,4.64
2017-06-01T03:14:29.011Z,5.70
2017-06-01T03:16:58.080Z,5.46
2017-06-01T03:19:27.133Z,5.90
2017-06-01T03:21:56.216Z,9.14
2017-06-01T03:24:25.364Z,8.02
2017-06-01T03:26:54.439Z,9.10
2017-06-01T03:29:23.516Z,6.94
2017-06-01T03:31:52.917Z,4.80
2017-06-01T03:34:21.996Z,6.62
2017-06-01T03:36:51.039Z,7.64
2017-06-01T03:39:20.103Z,6.32
2017-06-01T03:41:49.797Z,10.08
2017-06-01T03:44:18.834Z,6.66
2017-06-01T03:46:48.054Z,7.00
2017-06-01T03:49:17.133Z,9.00
2017-06-01T03:51:46.181Z,6.96
2017-06-01T03:54:15.289Z,5.70
2017-06-01T03:56:44.413Z,9.06
2017-06-01T03:59:13.503Z,6.60
2017-06-01T04:01:42.608Z,6.96
2017-06-01T04:04:11.672Z,9.02
2017-06-01T04:06:40.736Z,9.30
2017-06-01T04:09:09.820Z,10.42
2017-06-01T04:11:38.883Z,4.32
2017-06-01T04:14:07.978Z,8.14
2017-06-01T04:16:37.034Z,6.16
2017-06-01T04:19:06.904Z,7.98
2017-06-01T04:21:36.032Z,7.44
2017-06-01T04:24:07.986Z,6.52
2017-06-01T04:26:37.045Z,9.66
2017-06-01T04:29:06.117Z,7.58
2017-06-01T04:31:35.191Z,11.14
2017-06-01T04:34:04.248Z,6.84
2017-06-01T04:36:33.407Z,11.74
2017-06-01T04:39:02.496Z,11.04
2017-06-01T04:41:31.597Z,12.38
2017-06-01T04:44:00.641Z,7.66
2017-06-01T04:46:29.688Z,7.98
2017-06-01T04:48:58.908Z,8.54
2017-06-01T04:51:27.952Z,11.12
2017-06-01T04:53:57.011Z,5.72
2017-06-01T04:56:26.056Z,7.98
2017-06-01T04:58:55.139Z,9.96
2017-06-01T05:01:24.183Z,10.46
2017-06-01T05:03:53.247Z,9.92
2017-06-01T05:06:22.327Z,8.04
2017-06-01T05:08:51.371Z,5.24
2017-06-01T05:11:20.456Z,9.04
2017-06-01T05:13:49.525Z,10.52
2017-06-01T05:16:18.635Z,9.20
2017-06-01T05:18:47.723Z,12.98
2017-06-01T05:21:16.886Z,11.88
2017-06-01T05:23:45.937Z,10.86
2017-06-01T05:26:15.041Z,9.00
2017-06-01T05:28:44.096Z,9.22
2017-06-01T05:31:13.164Z,9.24
2017-06-01T05:33:42.233Z,10.56
2017-06-01T05:36:11.432Z,6.28
2017-06-01T05:38:40.645Z,9.64
2017-06-01T05:41:09.739Z,9.68
2017-06-01T05:43:38.787Z,9.58
2017-06-01T05:46:07.879Z,12.82
2017-06-01T05:48:36.965Z,7.08
2017-06-01T05:51:06.315Z,10.46
2017-06-01T05:53:35.389Z,9.28
2017-06-01T05:56:04.534Z,12.04
2017-06-01T05:58:33.587Z,7.44
2017-06-01T06:01:02.640Z,10.18
2017-06-01T06:03:32.017Z,8.12
2017-06-01T06:06:01.085Z,12.40
2017-06-01T06:08:30.140Z,7.56
2017-06-01T06:10:59.231Z,12.06
2017-06-01T06:13:28.283Z,14.38
2017-06-01T06:15:57.324Z,7.60
2017-06-01T06:18:26.485Z,11.16
2017-06-01T06:20:55.490Z,8.02
2017-06-01T06:23:24.557Z,8.26
2017-06-01T06:25:53.806Z,12.78
2017-06-01T06:28:23.095Z,7.48
2017-06-01T06:30:52.373Z,12.02
2017-06-01T06:33:21.431Z,14.06
2017-06-01T06:35:50.522Z,19.54
2017-06-01T06:38:19.719Z,14.68
2017-06-01T06:40:49.268Z,13.36
2017-06-01T06:43:17.796Z,12.30
2017-06-01T06:45:46.077Z,8.50
2017-06-01T06:48:14.378Z,11.58
2017-06-01T06:50:43.448Z,10.90
2017-06-01T06:53:12.573Z,12.16
2017-06-01T06:55:41.624Z,8.88
2017-06-01T06:58:09.949Z,9.02
2017-06-01T07:00:39.025Z,9.90
2017-06-01T07:03:07.323Z,9.32
2017-06-01T07:05:35.621Z,12.98
2017-06-01T07:08:04.702Z,9.58
2017-06-01T07:10:33.759Z,9.70
2017-06-01T07:13:02.872Z,10.80
2017-06-01T07:15:31.609Z,9.46
2017-06-01T07:18:00.677Z,11.44
2017-06-01T07:20:29.753Z,11.84
2017-06-01T07:22:59.096Z,6.84
2017-06-01T07:25:27.415Z,8.76
2017-06-01T07:27:55.704Z,9.88
2017-06-01T07:30:24.773Z,13.86
2017-06-01T07:32:53.844Z,10.16
2017-06-01T07:35:22.145Z,15.10
2017-06-01T07:37:50.424Z,10.52
2017-06-01T07:40:19.522Z,9.88
2017-06-01T07:42:47.836Z,10.44
2017-06-01T07:45:16.116Z,11.06
2017-06-01T07:47:45.192Z,9.56
2017-06-01T07:50:14.268Z,12.68
2017-06-01T07:52:43.320Z,9.14
2017-06-01T07:55:11.637Z,9.74
2017-06-01T07:57:40.686Z,10.76
2017-06-01T08:00:09.745Z,9.20
2017-06-01T08:02:38.808Z,9.38
2017-06-01T08:05:08.092Z,10.58
2017-06-01T08:07:37.166Z,10.64
2017-06-01T08:10:06.211Z,12.32
2017-06-01T08:12:35.285Z,10.80
2017-06-01T08:15:03.596Z,10.94
2017-06-01T08:17:31.900Z,8.38
2017-06-01T08:20:01.008Z,10.40
2017-06-01T08:22:29.412Z,10.82
2017-06-01T08:24:58.880Z,8.10
2017-06-01T08:27:27.181Z,9.40
2017-06-01T08:29:56.229Z,11.28
2017-06-01T08:32:25.288Z,12.86
2017-06-01T08:34:54.396Z,6.68
2017-06-01T08:37:22.695Z,14.02
2017-06-01T08:39:51.746Z,9.18
2017-06-01T08:42:20.064Z,11.68
2017-06-01T08:44:49.129Z,9.46
2017-06-01T08:47:18.195Z,8.26
2017-06-01T08:49:47.516Z,12.52
2017-06-01T08:52:16.564Z,8.32
2017-06-01T08:54:44.841Z,10.46
2017-06-01T08:57:13.148Z,14.94
2017-06-01T08:59:42.216Z,9.08
2017-06-01T09:02:10.609Z,12.06
2017-06-01T09:04:38.908Z,10.32
2017-06-01T09:07:07.958Z,10.92
2017-06-01T09:09:37.000Z,16.82
2017-06-01T09:12:06.097Z,9.52
2017-06-01T09:14:34.377Z,10.12
2017-06-01T09:17:02.680Z,12.66
2017-06-01T09:19:31.740Z,7.96
2017-06-01T09:22:00.801Z,7.78
2017-06-01T09:24:29.096Z,7.94
2017-06-01T09:26:57.643Z,10.98
2017-06-01T09:29:26.697Z,13.62
2017-06-01T09:31:55.003Z,10.84
2017-06-01T09:34:23.376Z,10.16
2017-06-01T09:36:51.652Z,9.50
2017-06-01T09:39:20.745Z,13.26
2017-06-01T09:41:49.760Z,6.70
2017-06-01T09:44:18.825Z,16.22
2017-06-01T09:46:47.151Z,8.68
2017-06-01T09:49:16.205Z,12.20
2017-06-01T09:51:45.313Z,9.84
2017-06-01T09:54:14.404Z,12.64
2017-06-01T09:56:43.465Z,8.56
2017-06-01T09:59:12.524Z,9.30
2017-06-01T10:01:41.593Z,8.86
2017-06-01T10:04:10.645Z,11.84
2017-06-01T10:06:38.933Z,11.00
2017-06-01T10:09:08.165Z,10.30
2017-06-01T10:11:36.469Z,7.98
2017-06-01T10:14:05.545Z,9.92
2017-06-01T10:16:34.624Z,9.84
2017-06-01T10:19:03.688Z,8.00
2017-06-01T10:21:32.744Z,12.90
2017-06-01T10:24:01.115Z,8.92
2017-06-01T10:26:30.183Z,9.32
2017-06-01T10:28:59.222Z,12.02
2017-06-01T10:31:28.299Z,9.64
2017-06-01T10:33:56.604Z,13.46
2017-06-01T10:36:25.644Z,9.48
2017-06-01T10:38:54.712Z,9.48
2017-06-01T10:41:23.005Z,15.18
2017-06-01T10:43:51.321Z,11.02
2017-06-01T10:46:19.644Z,13.40
2017-06-01T10:48:49.196Z,11.56
2017-06-01T10:51:18.336Z,10.80
2017-06-01T10:53:46.688Z,11.00
2017-06-01T10:56:15.760Z,11.26
2017-06-01T10:58:44.816Z,9.28
2017-06-01T11:01:13.124Z,12.84
2017-06-01T11:03:41.417Z,10.70
2017-06-01T11:06:09.737Z,12.08
2017-06-01T11:08:38.777Z,9.04
2017-06-01T11:11:07.897Z,9.32
2017-06-01T11:13:36.453Z,10.64
2017-06-01T11:16:04.775Z,12.76
2017-06-01T11:18:33.815Z,8.60
2017-06-01T11:21:02.892Z,12.62
2017-06-01T11:23:31.964Z,9.18
2017-06-01T11:26:01.024Z,9.52
2017-06-01T11:28:30.080Z,7.62
2017-06-01T11:30:59.181Z,9.78
2017-06-01T11:33:28.227Z,9.24
2017-06-01T11:35:57.290Z,11.34
2017-06-01T11:38:26.518Z,10.02
2017-06-01T11:40:55.577Z,9.30
2017-06-01T11:43:23.857Z,7.42
2017-06-01T11:45:52.939Z,8.36
2017-06-01T11:48:22.044Z,11.06
2017-06-01T11:50:51.332Z,8.74
2017-06-01T11:53:19.605Z,8.90
2017-06-01T11:55:48.694Z,8.74
2017-06-01T11:58:16.989Z,9.42
2017-06-01T12:00:46.043Z,9.18
2017-06-01T12:03:15.144Z,10.12
2017-06-01T12:05:43.437Z,8.48
2017-06-01T12:08:12.511Z,6.68
2017-06-01T12:10:41.589Z,9.24
2017-06-01T12:13:10.749Z,12.18
2017-06-01T12:15:39.825Z,7.90
2017-06-01T12:18:08.126Z,13.82
2017-06-01T12:20:37.177Z,9.48
2017-06-01T12:23:05.479Z,9.26
2017-06-01T12:25:34.524Z,8.68
2017-06-01T12:28:02.847Z,9.64
2017-06-01T12:30:31.994Z,8.18
2017-06-01T12:33:00.336Z,8.12
2017-06-01T12:35:28.645Z,11.66
2017-06-01T12:37:56.944Z,14.92
2017-06-01T12:40:26.001Z,11.36
2017-06-01T12:42:55.071Z,11.74
2017-06-01T12:45:23.368Z,12.12
2017-06-01T12:47:51.643Z,11.52
2017-06-01T12:50:20.762Z,11.38
2017-06-01T12:52:49.815Z,11.50
2017-06-01T12:55:18.115Z,10.06
2017-06-01T12:57:47.186Z,10.80
2017-06-01T13:00:18.358Z,10.56
2017-06-01T13:02:47.415Z,8.94
2017-06-01T13:05:15.748Z,8.22
2017-06-01T13:07:44.065Z,10.58
2017-06-01T13:10:13.148Z,12.94
2017-06-01T13:12:42.223Z,12.56
2017-06-01T13:15:10.545Z,9.36
2017-06-01T13:17:38.816Z,8.38
2017-06-01T13:20:07.890Z,13.34
2017-06-01T13:22:36.205Z,10.58
2017-06-01T13:25:04.489Z,9.84
2017-06-01T13:27:33.551Z,9.20
2017-06-01T13:30:02.666Z,13.58
2017-06-01T13:32:31.764Z,25.16
2017-06-01T13:35:00.844Z,9.00
2017-06-01T13:37:30.183Z,9.28
2017-06-01T13:39:59.233Z,10.32
2017-06-01T13:42:28.318Z,9.08
2017-06-01T13:44:57.381Z,8.58
2017-06-01T13:47:25.664Z,8.50
2017-06-01T13:49:54.709Z,9.92
2017-06-01T13:52:23.035Z,18.20
2017-06-01T13:54:51.322Z,10.42
2017-06-01T13:57:20.360Z,9.10
2017-06-01T13:59:49.456Z,8.68
2017-06-01T14:02:18.532Z,11.28
2017-06-01T14:04:46.824Z,12.08
2017-06-01T14:07:15.220Z,12.44
2017-06-01T14:09:44.280Z,12.06
2017-06-01T14:12:13.336Z,10.12
2017-06-01T14:14:42.426Z,12.48
2017-06-01T14:17:10.732Z,12.34
2017-06-01T14:19:39.795Z,9.76
2017-06-01T14:22:08.108Z,10.36
2017-06-01T14:24:36.408Z,11.02
2017-06-01T14:27:05.489Z,12.74
2017-06-01T14:29:34.560Z,11.08
2017-06-01T14:32:03.638Z,10.64
2017-06-01T14:34:31.937Z,11.22
2017-06-01T14:37:00.228Z,11.30
2017-06-01T14:39:29.303Z,11.56
2017-06-01T14:41:57.605Z,10.20
2017-06-01T14:44:25.977Z,12.52
2017-06-01T14:46:55.020Z,11.14
2017-06-01T14:49:24.112Z,13.42
2017-06-01T14:51:53.159Z,10.94
2017-06-01T14:54:21.468Z,11.06
2017-06-01T14:56:50.534Z,11.20
2017-06-01T14:59:19.597Z,12.36
2017-06-01T15:01:48.641Z,10.62
2017-06-01T15:04:16.987Z,10.10
2017-06-01T15:06:46.029Z,9.64
2017-06-01T15:09:15.355Z,9.34
2017-06-01T15:11:43.632Z,10.02
2017-06-01T15:14:11.979Z,9.60
2017-06-01T15:16:41.052Z,9.88
2017-06-01T15:19:10.100Z,10.36
2017-06-01T15:21:39.156Z,10.30
2017-06-01T15:24:07.629Z,10.18
2017-06-01T15:26:35.903Z,8.76
2017-06-01T15:29:04.983Z,10.36
2017-06-01T15:31:33.284Z,13.86
2017-06-01T15:34:02.348Z,10.32
2017-06-01T15:36:31.404Z,8.96
2017-06-01T15:39:00.496Z,10.94
2017-06-01T15:41:29.543Z,9.40
2017-06-01T15:43:58.598Z,9.78
2017-06-01T15:46:27.661Z,9.82
2017-06-01T15:48:57.443Z,10.34
2017-06-01T15:51:26.491Z,10.72
2017-06-01T15:53:54.815Z,12.66
2017-06-01T15:56:23.880Z,10.38
2017-06-01T15:58:52.974Z,10.14
2017-06-01T16:01:21.292Z,11.66
2017-06-01T16:03:50.506Z,11.84
2017-06-01T16:06:18.842Z,11.18
2017-06-01T16:08:47.899Z,13.26
2017-06-01T16:11:16.197Z,12.02
2017-06-01T16:13:45.304Z,12.26
2017-06-01T16:16:14.381Z,11.12
2017-06-01T16:18:43.452Z,11.10
2017-06-01T16:21:11.760Z,10.86
2017-06-01T16:23:40.862Z,9.36
2017-06-01T16:26:09.146Z,11.02
2017-06-01T16:28:38.236Z,10.20
2017-06-01T16:31:07.315Z,8.88
2017-06-01T16:33:36.417Z,9.22
2017-06-01T16:36:05.521Z,10.08
2017-06-01T16:38:34.588Z,9.32
2017-06-01T16:41:03.705Z,11.70
2017-06-01T16:43:32.772Z,10.08
2017-06-01T16:46:01.058Z,9.02
2017-06-01T16:48:30.172Z,11.18
2017-06-01T16:50:58.454Z,8.46
2017-06-01T16:53:26.736Z,9.54
2017-06-01T16:55:55.826Z,10.02
2017-06-01T16:58:24.884Z,8.98
2017-06-01T17:00:53.952Z,8.68
2017-06-01T17:03:22.250Z,10.04
2017-06-01T17:05:51.300Z,7.30
2017-06-01T17:08:20.529Z,20.54
2017-06-01T17:10:49.637Z,15.74
2017-06-01T17:13:17.920Z,12.66
2017-06-01T17:15:46.988Z,8.92
2017-06-01T17:18:15.345Z,8.70
2017-06-01T17:20:44.396Z,9.02
2017-06-01T17:23:13.544Z,9.26
2017-06-01T17:25:43.095Z,8.32
2017-06-01T17:28:12.392Z,7.42
2017-06-01T17:30:41.544Z,11.22
2017-06-01T17:33:09.840Z,11.76
2017-06-01T17:35:38.124Z,8.96
2017-06-01T17:38:07.208Z,9.16
2017-06-01T17:40:36.287Z,10.64
2017-06-01T17:43:05.654Z,7.06
2017-06-01T17:45:33.976Z,6.66
2017-06-01T17:48:03.077Z,8.20
2017-06-01T17:50:32.120Z,8.64
2017-06-01T17:53:01.168Z,6.78
2017-06-01T17:55:29.533Z,9.08
2017-06-01T17:57:58.627Z,9.68
2017-06-01T18:00:27.714Z,10.84
2017-06-01T18:02:56.787Z,6.28
2017-06-01T18:05:25.929Z,6.62
2017-06-01T18:07:54.209Z,9.88
2017-06-01T18:10:23.345Z,10.10
2017-06-01T18:12:52.424Z,7.66
2017-06-01T18:15:21.521Z,7.88
2017-06-01T18:17:49.823Z,10.28
2017-06-01T18:20:18.876Z,5.86
2017-06-01T18:22:47.974Z,6.72
2017-06-01T18:25:17.048Z,8.02
2017-06-01T18:27:45.335Z,6.38
2017-06-01T18:30:14.428Z,7.68
2017-06-01T18:32:42.739Z,8.94
2017-06-01T18:35:11.145Z,12.20
2017-06-01T18:37:40.249Z,7.14
2017-06-01T18:40:09.332Z,6.78
2017-06-01T18:42:37.698Z,7.88
2017-06-01T18:45:07.878Z,8.64
2017-06-01T18:47:36.205Z,7.42
2017-06-01T18:50:05.305Z,7.14
2017-06-01T18:52:34.344Z,9.16
2017-06-01T18:55:03.408Z,9.50
2017-06-01T18:57:32.546Z,7.94
2017-06-01T19:00:01.602Z,7.48
2017-06-01T19:02:30.700Z,8.90
2017-06-01T19:04:59.817Z,7.88
2017-06-01T19:07:28.885Z,10.98
2017-06-01T19:09:57.969Z,8.24
2017-06-01T19:12:27.038Z,10.26
2017-06-01T19:14:56.108Z,9.20
2017-06-01T19:17:25.168Z,8.26
2017-06-01T19:19:54.259Z,13.46
2017-06-01T19:22:23.324Z,8.20
2017-06-01T19:24:52.380Z,7.32
2017-06-01T19:27:21.465Z,9.42
2017-06-01T19:29:50.507Z,7.36
2017-06-01T19:32:19.557Z,11.66
2017-06-01T19:34:48.645Z,8.52
2017-06-01T19:37:17.741Z,6.38
2017-06-01T19:39:46.785Z,7.32
2017-06-01T19:42:15.885Z,6.08
2017-06-01T19:44:44.932Z,7.22
2017-06-01T19:47:14.041Z,6.46
2017-06-01T19:49:43.101Z,5.84
2017-06-01T19:52:12.183Z,6.16
2017-06-01T19:54:41.257Z,8.88
2017-06-01T19:57:10.318Z,6.42
2017-06-01T19:59:39.373Z,10.90
2017-06-01T20:02:08.452Z,6.86
2017-06-01T20:04:37.513Z,7.12
2017-06-01T20:07:06.588Z,6.80
2017-06-01T20:09:35.679Z,6.86
2017-06-01T20:12:04.773Z,7.68
2017-06-01T20:14:33.820Z,6.38
2017-06-01T20:17:02.933Z,8.06
2017-06-01T20:19:32.017Z,7.48
2017-06-01T20:22:01.077Z,14.36
2017-06-01T20:24:30.156Z,12.50
2017-06-01T20:26:59.250Z,9.34
2017-06-01T20:29:28.303Z,9.46
2017-06-01T20:31:57.382Z,9.04
2017-06-01T20:34:26.442Z,11.12
2017-06-01T20:36:55.527Z,10.12
2017-06-01T20:39:24.584Z,14.16
2017-06-01T20:41:53.668Z,9.72
2017-06-01T20:44:22.724Z,9.74
2017-06-01T20:46:51.800Z,11.74
2017-06-01T20:49:20.884Z,9.32
2017-06-01T20:51:49.925Z,8.56
2017-06-01T20:54:18.980Z,9.00
2017-06-01T20:56:48.085Z,10.16
2017-06-01T20:59:17.145Z,9.80
2017-06-01T21:01:46.188Z,9.86
2017-06-01T21:04:15.461Z,9.56
2017-06-01T21:06:44.524Z,10.44
2017-06-01T21:09:13.621Z,16.04
2017-06-01T21:11:42.693Z,10.02
2017-06-01T21:14:11.757Z,10.02
2017-06-01T21:16:40.841Z,11.76
2017-06-01T21:19:09.924Z,15.64
2017-06-01T21:21:39.010Z,12.56
2017-06-01T21:24:08.293Z,11.78
2017-06-01T21:26:37.340Z,19.52
2017-06-01T21:29:06.443Z,12.76
2017-06-01T21:31:35.500Z,14.16
2017-06-01T21:34:05.380Z,15.24
2017-06-01T21:36:34.452Z,14.40
2017-06-01T21:39:03.512Z,15.56
2017-06-01T21:41:32.596Z,13.80
2017-06-01T21:44:01.684Z,13.28
2017-06-01T21:46:30.739Z,14.18
2017-06-01T21:48:59.806Z,12.48
2017-06-01T21:51:28.916Z,12.70
2017-06-01T21:53:57.990Z,12.68
2017-06-01T21:56:27.055Z,16.32
2017-06-01T21:58:56.100Z,10.74
2017-06-01T22:01:25.187Z,12.84
2017-06-01T22:03:54.271Z,16.76
2017-06-01T22:06:23.325Z,13.08
2017-06-01T22:08:52.403Z,13.40
2017-06-01T22:11:21.477Z,17.92
2017-06-01T22:13:50.541Z,18.18
2017-06-01T22:16:19.607Z,15.46
2017-06-01T22:18:48.686Z,13.22
2017-06-01T22:21:17.797Z,15.76
2017-06-01T22:23:46.868Z,14.82
2017-06-01T22:26:15.920Z,14.42
2017-06-01T22:28:45.043Z,14.18
2017-06-01T22:31:14.087Z,13.94
2017-06-01T22:33:43.162Z,14.06
2017-06-01T22:36:12.243Z,13.82
2017-06-01T22:38:41.295Z,15.06
2017-06-01T22:41:10.389Z,14.70
2017-06-01T22:43:39.456Z,14.90
2017-06-01T22:46:08.537Z,15.60
2017-06-01T22:48:37.811Z,14.26
2017-06-01T22:51:06.896Z,15.32
2017-06-01T22:53:35.985Z,15.10
2017-06-01T22:56:05.074Z,16.84
2017-06-01T22:58:34.143Z,15.66
2017-06-01T23:01:03.232Z,18.50
2017-06-01T23:03:32.312Z,16.68
2017-06-01T23:06:01.364Z,15.36
2017-06-01T23:08:30.454Z,14.04
2017-06-01T23:10:59.506Z,16.32
2017-06-01T23:13:28.584Z,16.06
2017-06-01T23:15:57.697Z,15.32
2017-06-01T23:18:26.795Z,15.60
2017-06-01T23:20:55.845Z,15.94
2017-06-01T23:23:24.999Z,15.32
2017-06-01T23:25:54.415Z,16.28
2017-06-01T23:28:23.501Z,16.98
2017-06-01T23:30:52.566Z,16.12
2017-06-01T23:33:21.627Z,14.68
2017-06-01T23:35:50.709Z,13.94
2017-06-01T23:38:19.784Z,16.28
2017-06-01T23:40:48.847Z,17.64
2017-06-01T23:43:17.943Z,16.90
2017-06-01T23:45:47.008Z,18.00
2017-06-01T23:48:16.082Z,16.20
2017-06-01T23:50:45.285Z,17.52
2017-06-01T23:53:14.348Z,17.96
2017-06-01T23:55:43.417Z,18.78
2017-06-01T23:58:12.509Z,17.34
